Portada
METAR-TAF:

METAR-TAF

Aeroports :

Vientiane, Laos

latitud: 17-57N, longitud: 102-34E, altitud: 171 m

Observació

L'informe es va fer fa 29 minuts, a les 23:30 UTC
Vent calma
Temperatura 25°C
Humitat 94%
Pressió 1014 hPa
Visibilitat 10 km o més
Cel ennuvolat a una alçada de 4000 ft

METAR: VLVT 192330Z 00000KT 9999 BKN040 25/24 Q1014 NOSIG

Hora: 06:59 (23:59 UTC)

Pronòstic

L'informe es va fer fa 59 minuts, a les 23:00 UTC
Pronòstic vàlid del 20 a les 00 UTC al 20 a les 24 UTC
Vent 4 kt del Est
Visibilitat 10 km o més
Núvols disperses a una alçada de 2000 ft
Escasses núvols a una alçada de 20000 ft
Temporalment
l' 20 a les 14 UTC al 20 a les 20 UTC
Visibilitat: 4000 m
Escasses núvols a una alçada de 5000 ft
Escasses núvols a una alçada de 20000 ft
boirina

TAF: VLVT 192300Z 2000/2024 09004KT 9999 SCT020 FEW200 TEMPO 2014/2020 4000 BR FEW050 FEW200

Observacions i pronòstics meteorològics de més de 4000 aeroports (METAR i TAF).

Les estacions disponibles són els punts grocs i vermells al mapa.

Posi el ratolí al punt desitjat per veure el nom de l'estació.

Feu clic per veure les observacions i els pronòstics meteorològics.

Per canviar el mapa: feu clic els botons verds amb una creu de color negre per apropar; al botó verd amb un guió per allunyar la imatge; o en les fletxes verdes per a mapes adjacents.


METAR-TAF: